Pleasant Valley, Wisconsin
Current Conditions -  °F | °C
As of 1:55 PM on Sunday 21 Dec 2014 (Local Time) from KRNH Reporting Station
Light Rain Light Rain  
Wind Chill: 26°   Ceiling: 400
Heat Index: 33°   Visibility: 2.5mi
Dew Point: 33°   Wind: 8mph
Humidity: 100%   Direction: 150°SSE
Pressure: 29.78"   Gusts: NA
Location:  44.9597°N, 92.4593°W
Report Text: KRNH 211955Z AUTO 15007KT 2 1/2SM -RA OVC004 01/01 A2978 RMK AO2 P0005 T00060006
Loading
Personal Weather Stations






























Interactive Weather Map New forecast layout! Learn more

10-Day Weather Forecast

Advertisements
Track Severe Weather on mobile